createdAt,value
2023-05-15T00:00:33.562Z,11.73
2023-05-15T00:01:35.511Z,11.71
2023-05-15T00:02:37.900Z,11.70
2023-05-15T00:03:42.397Z,11.69
2023-05-15T00:04:46.625Z,11.68
2023-05-15T00:05:48.547Z,11.65
2023-05-15T00:06:51.082Z,11.65
2023-05-15T00:07:52.646Z,11.62
2023-05-15T00:08:54.412Z,11.62
2023-05-15T00:09:55.968Z,11.60
2023-05-15T00:11:01.684Z,11.60
2023-05-15T00:12:04.454Z,11.58
2023-05-15T00:13:06.005Z,11.57
2023-05-15T00:14:10.134Z,11.56
2023-05-15T00:15:11.796Z,11.54
2023-05-15T00:16:14.427Z,11.53
2023-05-15T00:17:16.480Z,11.51
2023-05-15T00:18:20.520Z,11.49
2023-05-15T00:19:22.597Z,11.47
2023-05-15T00:20:24.516Z,11.44
2023-05-15T00:21:26.304Z,11.42
2023-05-15T00:22:29.969Z,11.39
2023-05-15T00:23:31.569Z,11.36
2023-05-15T00:24:34.543Z,11.36
2023-05-15T00:25:36.087Z,11.34
2023-05-15T00:26:37.752Z,11.34
2023-05-15T00:27:39.606Z,11.33
2023-05-15T00:28:41.553Z,11.30
2023-05-15T00:29:43.306Z,11.30
2023-05-15T00:30:44.980Z,11.27
2023-05-15T00:31:46.654Z,11.27
2023-05-15T00:32:49.011Z,11.24
2023-05-15T00:33:52.672Z,11.21
2023-05-15T00:34:54.318Z,11.19
2023-05-15T00:35:55.903Z,11.18
2023-05-15T00:36:59.687Z,11.16
2023-05-15T00:38:01.321Z,11.14
2023-05-15T00:39:03.307Z,11.10
2023-05-15T00:40:05.650Z,11.08
2023-05-15T00:41:08.450Z,11.06
2023-05-15T00:42:11.863Z,11.02
2023-05-15T00:43:15.301Z,10.98
2023-05-15T00:44:19.508Z,10.94
2023-05-15T00:45:22.119Z,10.90
2023-05-15T00:46:25.761Z,10.88
2023-05-15T00:47:27.834Z,10.85
2023-05-15T00:48:29.574Z,10.83
2023-05-15T00:49:35.357Z,10.82
2023-05-15T00:50:38.745Z,10.80
2023-05-15T00:51:43.697Z,10.77
2023-05-15T00:52:46.012Z,10.75
2023-05-15T00:53:47.891Z,10.74
2023-05-15T00:54:49.979Z,10.73
2023-05-15T00:55:52.425Z,10.74
2023-05-15T00:56:57.574Z,10.72
2023-05-15T00:58:01.321Z,10.72
2023-05-15T00:59:04.688Z,10.72
2023-05-15T01:00:10.428Z,10.71
2023-05-15T01:01:15.568Z,10.68
2023-05-15T01:02:18.933Z,10.67
2023-05-15T01:03:20.726Z,10.64
2023-05-15T01:04:22.816Z,10.63
2023-05-15T01:05:25.045Z,10.61
2023-05-15T01:06:26.909Z,10.59
2023-05-15T01:07:33.496Z,10.52
2023-05-15T01:08:35.267Z,10.49
2023-05-15T01:09:38.356Z,10.44
2023-05-15T01:10:42.936Z,10.41
2023-05-15T01:11:47.114Z,10.37
2023-05-15T01:12:53.205Z,10.36
2023-05-15T01:13:54.924Z,10.35
2023-05-15T01:14:57.718Z,10.36
2023-05-15T01:15:59.755Z,10.36
2023-05-15T01:17:01.591Z,10.37
2023-05-15T01:18:03.729Z,10.37
2023-05-15T01:19:05.718Z,10.37
2023-05-15T01:20:10.683Z,10.38
2023-05-15T01:21:34.456Z,10.39
2023-05-15T01:22:51.689Z,10.37
2023-05-15T01:24:08.360Z,10.34
2023-05-15T01:25:25.750Z,10.32
2023-05-15T01:26:42.637Z,10.29
2023-05-15T01:27:56.784Z,10.26
2023-05-15T01:29:04.372Z,10.24
2023-05-15T01:30:17.250Z,10.20
2023-05-15T01:31:23.235Z,10.16
2023-05-15T01:32:47.810Z,10.16
2023-05-15T01:33:54.718Z,10.14
2023-05-15T01:35:09.465Z,10.13
2023-05-15T01:36:24.537Z,10.11
2023-05-15T01:37:29.490Z,10.07
2023-05-15T01:38:38.374Z,10.05
2023-05-15T01:39:46.400Z,10.04
2023-05-15T01:40:56.760Z,10.03
2023-05-15T01:42:04.108Z,10.02
2023-05-15T01:43:11.539Z,10.02
2023-05-15T01:44:26.188Z,10.01
2023-05-15T01:45:30.164Z,9.98
2023-05-15T01:46:34.705Z,9.97
2023-05-15T01:47:43.886Z,9.95
2023-05-15T01:48:48.473Z,9.94
2023-05-15T01:49:52.502Z,9.94
2023-05-15T01:50:58.222Z,9.92
2023-05-15T01:52:08.319Z,9.90
2023-05-15T01:53:11.209Z,9.88
2023-05-15T01:54:14.859Z,9.86
2023-05-15T01:55:18.260Z,9.86
2023-05-15T01:56:22.063Z,9.86
2023-05-15T01:57:26.876Z,9.85
2023-05-15T01:58:28.907Z,9.85
2023-05-15T01:59:31.443Z,9.83
2023-05-15T02:00:34.088Z,9.83
2023-05-15T02:01:36.932Z,9.83
2023-05-15T02:02:39.709Z,9.82
2023-05-15T02:03:42.394Z,9.83
2023-05-15T02:04:45.539Z,9.81
2023-05-15T02:05:49.407Z,9.79
2023-05-15T02:06:52.081Z,9.75
2023-05-15T02:07:54.266Z,9.74
2023-05-15T02:08:58.781Z,9.73
2023-05-15T02:10:02.186Z,9.71
2023-05-15T02:11:05.824Z,9.70
2023-05-15T02:12:08.504Z,9.69
2023-05-15T02:13:11.255Z,9.67
2023-05-15T02:14:14.790Z,9.66
2023-05-15T02:15:17.149Z,9.64
2023-05-15T02:16:21.658Z,9.61
2023-05-15T02:17:23.901Z,9.60
2023-05-15T02:18:26.017Z,9.58
2023-05-15T02:19:27.611Z,9.56
2023-05-15T02:20:29.272Z,9.55
2023-05-15T02:21:31.078Z,9.52
2023-05-15T02:22:32.690Z,9.52
2023-05-15T02:23:35.188Z,9.49
2023-05-15T02:24:36.746Z,9.45
2023-05-15T02:25:51.358Z,9.43
2023-05-15T02:27:12.705Z,9.38
2023-05-15T02:28:28.502Z,9.36
2023-05-15T02:29:55.993Z,9.34
2023-05-15T02:31:10.816Z,9.31
2023-05-15T02:32:27.766Z,9.30
2023-05-15T02:33:59.530Z,9.28
2023-05-15T02:35:01.163Z,9.27
2023-05-15T02:36:07.190Z,9.26
2023-05-15T02:37:18.666Z,9.26
2023-05-15T02:38:26.201Z,9.24
2023-05-15T02:39:29.540Z,9.24
2023-05-15T02:40:32.915Z,9.24
2023-05-15T02:41:36.951Z,9.24
2023-05-15T02:42:40.998Z,9.23
2023-05-15T02:43:44.672Z,9.22
2023-05-15T02:44:49.179Z,9.20
2023-05-15T02:45:52.733Z,9.18
2023-05-15T02:46:54.993Z,9.16
2023-05-15T02:47:57.124Z,9.14
2023-05-15T02:49:01.736Z,9.13
2023-05-15T02:50:05.009Z,9.12
2023-05-15T02:51:10.991Z,9.11
2023-05-15T02:52:12.757Z,9.11
2023-05-15T02:53:16.098Z,9.11
2023-05-15T02:54:21.541Z,9.08
2023-05-15T02:55:23.543Z,9.09
2023-05-15T02:56:25.993Z,9.08
2023-05-15T02:57:27.699Z,9.07
2023-05-15T02:58:29.900Z,9.05
2023-05-15T02:59:31.468Z,9.05
2023-05-15T03:00:33.819Z,9.06
2023-05-15T03:01:36.129Z,9.05
2023-05-15T03:02:38.713Z,9.04
2023-05-15T03:03:41.098Z,9.02
2023-05-15T03:04:42.676Z,9.02
2023-05-15T03:05:44.660Z,9.01
2023-05-15T03:06:46.289Z,9.01
2023-05-15T03:07:48.288Z,9.00
2023-05-15T03:08:50.251Z,9.00
2023-05-15T03:09:51.791Z,9.00
2023-05-15T03:10:53.840Z,9.00
2023-05-15T03:11:55.423Z,9.00
2023-05-15T03:13:02.312Z,9.01
2023-05-15T03:14:04.685Z,9.00
2023-05-15T03:15:07.002Z,8.98
2023-05-15T03:16:08.729Z,8.96
2023-05-15T03:17:10.568Z,8.95
2023-05-15T03:18:12.496Z,8.92
2023-05-15T03:19:14.319Z,8.91
2023-05-15T03:20:16.389Z,8.89
2023-05-15T03:21:20.698Z,8.87
2023-05-15T03:22:22.345Z,8.85
2023-05-15T03:23:26.660Z,8.85
2023-05-15T03:24:28.384Z,8.84
2023-05-15T03:25:30.169Z,8.84
2023-05-15T03:26:31.799Z,8.84
2023-05-15T03:27:33.532Z,8.82
2023-05-15T03:28:35.229Z,8.80
2023-05-15T03:29:36.843Z,8.80
2023-05-15T03:30:38.566Z,8.78
2023-05-15T03:31:40.270Z,8.76
2023-05-15T03:32:41.988Z,8.72
2023-05-15T03:33:45.699Z,8.72
2023-05-15T03:34:47.476Z,8.70
2023-05-15T03:35:49.131Z,8.68
2023-05-15T03:36:50.693Z,8.65
2023-05-15T03:37:52.286Z,8.62
2023-05-15T03:38:54.048Z,8.59
2023-05-15T03:39:55.848Z,8.58
2023-05-15T03:40:57.470Z,8.59
2023-05-15T03:41:59.621Z,8.59
2023-05-15T03:43:01.527Z,8.59
2023-05-15T03:44:03.553Z,8.60
2023-05-15T03:45:05.873Z,8.60
2023-05-15T03:46:07.539Z,8.62
2023-05-15T03:47:09.548Z,8.62
2023-05-15T03:48:11.148Z,8.64
2023-05-15T03:49:12.843Z,8.62
2023-05-15T03:50:15.060Z,8.61
2023-05-15T03:51:16.587Z,8.61
2023-05-15T03:52:18.339Z,8.59
2023-05-15T03:53:20.408Z,8.59
2023-05-15T03:54:22.004Z,8.59
2023-05-15T03:55:27.101Z,8.60
2023-05-15T03:56:29.181Z,8.61
2023-05-15T03:57:32.111Z,8.62
2023-05-15T03:58:34.911Z,8.66
2023-05-15T03:59:36.830Z,8.72
2023-05-15T04:00:47.674Z,8.82
2023-05-15T04:02:03.688Z,8.89
2023-05-15T04:03:07.153Z,8.95
2023-05-15T04:04:09.400Z,8.98
2023-05-15T04:05:11.656Z,9.02
2023-05-15T04:06:13.800Z,9.07
2023-05-15T04:07:16.710Z,9.11
2023-05-15T04:08:18.865Z,9.13
2023-05-15T04:09:20.678Z,9.15
2023-05-15T04:10:23.091Z,9.18
2023-05-15T04:11:25.161Z,9.19
2023-05-15T04:12:32.865Z,9.20
2023-05-15T04:13:35.366Z,9.16
2023-05-15T04:14:37.036Z,9.14
2023-05-15T04:15:40.572Z,9.13
2023-05-15T04:16:42.345Z,9.11
2023-05-15T04:17:45.472Z,9.11
2023-05-15T04:18:47.343Z,9.09
2023-05-15T04:19:49.100Z,9.10
2023-05-15T04:20:51.408Z,9.10
2023-05-15T04:21:52.971Z,9.10
2023-05-15T04:22:54.588Z,9.11
2023-05-15T04:23:56.214Z,9.14
2023-05-15T04:24:58.147Z,9.15
2023-05-15T04:25:59.888Z,9.18
2023-05-15T04:27:01.507Z,9.21
2023-05-15T04:28:03.355Z,9.24
2023-05-15T04:29:05.089Z,9.28
2023-05-15T04:30:07.971Z,9.33
2023-05-15T04:31:12.132Z,9.38
2023-05-15T04:32:14.084Z,9.40
2023-05-15T04:33:15.720Z,9.45
2023-05-15T04:34:17.356Z,9.48
2023-05-15T04:35:19.174Z,9.53
2023-05-15T04:36:21.048Z,9.55
2023-05-15T04:37:22.680Z,9.58
2023-05-15T04:38:24.442Z,9.58
2023-05-15T04:39:26.098Z,9.61
2023-05-15T04:40:29.173Z,9.62
2023-05-15T04:41:33.211Z,9.63
2023-05-15T04:42:37.200Z,9.64
2023-05-15T04:43:41.265Z,9.64
2023-05-15T04:44:43.402Z,9.62
2023-05-15T04:45:45.030Z,9.65
2023-05-15T04:46:46.609Z,9.66
2023-05-15T04:47:48.330Z,9.66
2023-05-15T04:48:50.226Z,9.68
2023-05-15T04:49:51.766Z,9.70
2023-05-15T04:50:53.528Z,9.71
2023-05-15T04:51:55.207Z,9.73
2023-05-15T04:52:56.786Z,9.74
2023-05-15T04:53:58.620Z,9.76
2023-05-15T04:55:00.396Z,9.77
2023-05-15T04:56:01.953Z,9.80
2023-05-15T04:57:06.198Z,9.80
2023-05-15T04:58:07.764Z,9.83
2023-05-15T04:59:10.933Z,9.86
2023-05-15T05:00:14.222Z,9.88
2023-05-15T05:01:15.863Z,9.90
2023-05-15T05:02:23.844Z,9.95
2023-05-15T05:03:25.589Z,9.98
2023-05-15T05:04:27.153Z,10.03
2023-05-15T05:05:28.903Z,10.05
2023-05-15T05:06:30.722Z,10.11
2023-05-15T05:07:32.588Z,10.16
2023-05-15T05:08:34.628Z,10.18
2023-05-15T05:09:36.161Z,10.18
2023-05-15T05:10:37.736Z,10.20
2023-05-15T05:11:43.612Z,10.23
2023-05-15T05:12:45.240Z,10.29
2023-05-15T05:13:47.658Z,10.36
2023-05-15T05:14:49.570Z,10.43
2023-05-15T05:15:51.155Z,10.50
2023-05-15T05:16:52.783Z,10.59
2023-05-15T05:17:54.572Z,10.68
2023-05-15T05:18:56.361Z,10.75
2023-05-15T05:19:57.974Z,10.86
2023-05-15T05:21:01.376Z,10.97
2023-05-15T05:22:05.203Z,11.09
2023-05-15T05:23:06.954Z,11.21
2023-05-15T05:24:08.779Z,11.32
2023-05-15T05:25:10.846Z,11.43
2023-05-15T05:26:12.696Z,11.54
2023-05-15T05:27:14.492Z,11.65
2023-05-15T05:28:16.195Z,11.74
2023-05-15T05:29:19.925Z,11.85
2023-05-15T05:30:22.389Z,11.95
2023-05-15T05:31:24.157Z,12.05
2023-05-15T05:32:25.790Z,12.14
2023-05-15T05:33:27.565Z,12.24
2023-05-15T05:34:29.261Z,12.32
2023-05-15T05:35:31.020Z,12.42
2023-05-15T05:36:32.808Z,12.51
2023-05-15T05:37:34.621Z,12.59
2023-05-15T05:38:36.761Z,12.66
2023-05-15T05:39:38.638Z,12.74
2023-05-15T05:40:40.536Z,12.82
2023-05-15T05:41:42.464Z,12.90
2023-05-15T05:42:44.591Z,12.98
2023-05-15T05:43:46.289Z,13.07
2023-05-15T05:44:47.829Z,13.15
2023-05-15T05:45:49.525Z,13.22
2023-05-15T05:46:52.479Z,13.29
2023-05-15T05:47:57.189Z,13.36
2023-05-15T05:48:59.670Z,13.42
2023-05-15T05:50:01.416Z,13.50
2023-05-15T05:51:03.368Z,13.57
2023-05-15T05:52:07.279Z,13.64
2023-05-15T05:53:09.305Z,13.73
2023-05-15T05:54:10.858Z,13.81
2023-05-15T05:55:12.406Z,13.88
2023-05-15T05:56:14.495Z,13.97
2023-05-15T05:57:16.186Z,14.04
2023-05-15T05:59:25.983Z,14.21
2023-05-15T06:00:27.647Z,14.27
2023-05-15T06:01:29.687Z,14.33
2023-05-15T06:02:31.669Z,14.36
2023-05-15T06:03:34.327Z,14.42
2023-05-15T06:04:36.082Z,14.48
2023-05-15T06:05:37.752Z,14.53
2023-05-15T06:06:39.449Z,14.58
2023-05-15T06:07:41.274Z,14.64
2023-05-15T06:08:42.850Z,14.70
2023-05-15T06:09:45.932Z,14.74
2023-05-15T06:10:48.326Z,14.81
2023-05-15T06:11:50.257Z,14.84
2023-05-15T06:12:52.100Z,14.89
2023-05-15T06:13:53.744Z,14.95
2023-05-15T06:14:55.410Z,14.97
2023-05-15T06:15:57.054Z,15.00
2023-05-15T06:16:58.982Z,15.04
2023-05-15T06:18:00.639Z,15.09
2023-05-15T06:19:02.779Z,15.15
2023-05-15T06:20:09.780Z,15.21
2023-05-15T06:21:11.409Z,15.30
2023-05-15T06:22:12.987Z,15.39
2023-05-15T06:23:15.159Z,15.47
2023-05-15T06:24:16.916Z,15.50
2023-05-15T06:25:19.041Z,15.56
2023-05-15T06:26:21.901Z,15.62
2023-05-15T06:27:26.392Z,15.71
2023-05-15T06:28:28.220Z,15.78
2023-05-15T06:29:34.418Z,15.83
2023-05-15T06:30:36.052Z,15.89
2023-05-15T06:31:37.664Z,15.93
2023-05-15T06:32:40.450Z,15.98
2023-05-15T06:33:42.163Z,16.05
2023-05-15T06:34:45.061Z,16.12
2023-05-15T06:35:47.268Z,16.15
2023-05-15T06:36:49.388Z,16.22
2023-05-15T06:37:52.543Z,16.26
2023-05-15T06:38:54.506Z,16.32
2023-05-15T06:39:56.491Z,16.37
2023-05-15T06:40:58.205Z,16.44
2023-05-15T06:42:01.514Z,16.49
2023-05-15T06:43:04.700Z,16.53
2023-05-15T06:44:06.350Z,16.57
2023-05-15T06:45:09.028Z,16.62
2023-05-15T06:46:10.784Z,16.68
2023-05-15T06:47:12.511Z,16.72
2023-05-15T06:48:14.291Z,16.74
2023-05-15T06:49:15.979Z,16.75
2023-05-15T06:50:17.538Z,16.80
2023-05-15T06:51:19.200Z,16.83
2023-05-15T06:52:21.112Z,16.89
2023-05-15T06:53:22.752Z,16.94
2023-05-15T06:54:24.438Z,16.99
2023-05-15T06:55:26.355Z,17.04
2023-05-15T06:56:28.092Z,17.09
2023-05-15T06:57:33.733Z,17.10
2023-05-15T06:58:35.739Z,17.11
2023-05-15T06:59:37.307Z,17.12
2023-05-15T07:00:41.090Z,17.16
2023-05-15T07:01:42.773Z,17.20
2023-05-15T07:02:44.454Z,17.27
2023-05-15T07:03:47.649Z,17.33
2023-05-15T07:04:49.396Z,17.37
2023-05-15T07:05:52.153Z,17.43
2023-05-15T07:06:53.848Z,17.50
2023-05-15T07:07:55.436Z,17.53
2023-05-15T07:08:57.203Z,17.57
2023-05-15T07:09:58.932Z,17.60
2023-05-15T07:11:01.126Z,17.66
2023-05-15T07:12:03.694Z,17.72
2023-05-15T07:13:05.501Z,17.78
2023-05-15T07:14:07.097Z,17.83
2023-05-15T07:15:09.449Z,17.87
2023-05-15T07:16:11.308Z,17.92
2023-05-15T07:17:12.979Z,17.96
2023-05-15T07:18:14.859Z,17.98
2023-05-15T07:19:21.216Z,18.03
2023-05-15T07:20:22.973Z,18.07
2023-05-15T07:21:24.913Z,18.12
2023-05-15T07:22:29.623Z,18.17
2023-05-15T07:23:31.228Z,18.22
2023-05-15T07:24:32.842Z,18.27
2023-05-15T07:25:34.736Z,18.31
2023-05-15T07:26:46.612Z,18.36
2023-05-15T07:27:58.626Z,18.38
2023-05-15T07:29:00.272Z,18.39
2023-05-15T07:30:03.993Z,18.35
2023-05-15T07:31:05.754Z,18.34
2023-05-15T07:32:07.659Z,18.39
2023-05-15T07:33:09.337Z,18.42
2023-05-15T07:34:11.619Z,18.44
2023-05-15T07:35:13.451Z,18.50
2023-05-15T07:36:15.786Z,18.55
2023-05-15T07:37:17.593Z,18.58
2023-05-15T07:38:19.228Z,18.62
2023-05-15T07:39:21.075Z,18.62
2023-05-15T07:40:22.723Z,18.62
2023-05-15T07:41:24.412Z,18.65
2023-05-15T07:42:26.155Z,18.67
2023-05-15T07:43:27.770Z,18.74
2023-05-15T07:44:29.507Z,18.76
2023-05-15T07:45:31.210Z,18.75
2023-05-15T07:46:33.907Z,18.81
2023-05-15T07:47:36.051Z,18.81
2023-05-15T07:48:37.696Z,18.79
2023-05-15T07:49:39.817Z,18.82
2023-05-15T07:50:41.797Z,18.85
2023-05-15T07:51:43.702Z,18.89
2023-05-15T07:52:45.332Z,18.93
2023-05-15T07:53:47.060Z,19.00
2023-05-15T07:54:51.311Z,19.03
2023-05-15T07:55:53.243Z,19.05
2023-05-15T07:56:54.897Z,19.04
2023-05-15T07:57:56.882Z,19.06
2023-05-15T07:58:58.720Z,19.09
2023-05-15T08:00:02.385Z,19.11
2023-05-15T08:01:13.689Z,19.13
2023-05-15T08:02:15.262Z,19.17
2023-05-15T08:03:17.205Z,19.19
2023-05-15T08:04:19.287Z,19.21
2023-05-15T08:05:20.953Z,19.23
2023-05-15T08:06:22.601Z,19.23
2023-05-15T08:07:24.552Z,19.24
2023-05-15T08:08:26.107Z,19.28
2023-05-15T08:09:27.727Z,19.32
2023-05-15T08:10:29.548Z,19.33
2023-05-15T08:11:31.565Z,19.34
2023-05-15T08:12:34.133Z,19.36
2023-05-15T08:13:50.973Z,19.30
2023-05-15T08:14:56.782Z,19.35
2023-05-15T08:15:58.632Z,19.37
2023-05-15T08:17:00.245Z,19.42
2023-05-15T08:18:01.974Z,19.46
2023-05-15T08:19:05.658Z,19.52
2023-05-15T08:20:07.893Z,19.56
2023-05-15T08:21:09.738Z,19.59
2023-05-15T08:22:11.796Z,19.61
2023-05-15T08:23:13.589Z,19.64
2023-05-15T08:24:15.434Z,19.67
2023-05-15T08:25:17.030Z,19.69
2023-05-15T08:26:18.750Z,19.72
2023-05-15T08:27:20.543Z,19.72
2023-05-15T08:28:22.134Z,19.69
2023-05-15T08:29:24.032Z,19.68
2023-05-15T08:30:25.879Z,19.71
2023-05-15T08:31:27.590Z,19.73
2023-05-15T08:32:29.522Z,19.69
2023-05-15T08:33:31.217Z,19.71
2023-05-15T08:34:32.976Z,19.75
2023-05-15T08:35:34.808Z,19.76
2023-05-15T08:36:37.687Z,19.78
2023-05-15T08:37:40.311Z,19.82
2023-05-15T08:38:41.946Z,19.85
2023-05-15T08:39:43.767Z,19.89
2023-05-15T08:40:47.222Z,19.91
2023-05-15T08:42:21.266Z,19.91
2023-05-15T08:43:23.573Z,19.94
2023-05-15T08:44:25.443Z,19.94
2023-05-15T08:45:27.869Z,19.93
2023-05-15T08:46:30.173Z,19.96
2023-05-15T08:47:38.768Z,20.00
2023-05-15T08:48:42.461Z,20.03
2023-05-15T08:49:46.863Z,20.05
2023-05-15T08:50:49.560Z,20.07
2023-05-15T08:51:51.519Z,20.06
2023-05-15T08:52:58.708Z,20.11
2023-05-15T08:54:00.641Z,20.15
2023-05-15T08:55:04.035Z,20.20
2023-05-15T08:56:06.078Z,20.20
2023-05-15T08:57:10.038Z,20.24
2023-05-15T08:58:11.948Z,20.26
2023-05-15T08:59:13.847Z,20.29
2023-05-15T09:00:19.673Z,20.34
2023-05-15T09:01:21.980Z,20.36
2023-05-15T09:02:26.052Z,20.37
2023-05-15T09:03:27.922Z,20.39
2023-05-15T09:04:30.116Z,20.41
2023-05-15T09:05:32.004Z,20.45
2023-05-15T09:06:34.771Z,20.47
2023-05-15T09:07:38.905Z,20.48
2023-05-15T09:08:42.278Z,20.50
2023-05-15T09:09:44.965Z,20.52
2023-05-15T09:10:50.147Z,20.55
2023-05-15T09:11:52.681Z,20.55
2023-05-15T09:12:55.010Z,20.59
2023-05-15T09:13:59.964Z,20.61
2023-05-15T09:15:17.830Z,20.62
2023-05-15T09:16:21.581Z,20.68
2023-05-15T09:17:23.597Z,20.72
2023-05-15T09:18:26.468Z,20.77
2023-05-15T09:19:28.818Z,20.81
2023-05-15T09:20:31.709Z,20.88
2023-05-15T09:21:34.607Z,20.88
2023-05-15T09:22:36.579Z,20.90
2023-05-15T09:23:38.744Z,20.87
2023-05-15T09:24:40.336Z,20.92
2023-05-15T09:25:44.813Z,20.96
2023-05-15T09:26:48.759Z,21.02
2023-05-15T09:27:50.567Z,21.10
2023-05-15T09:29:02.492Z,21.13
2023-05-15T09:30:10.488Z,21.14
2023-05-15T09:31:12.702Z,21.14
2023-05-15T09:32:15.569Z,21.21
2023-05-15T09:33:17.591Z,21.24
2023-05-15T09:34:20.421Z,21.27
2023-05-15T09:35:34.706Z,21.28
2023-05-15T09:36:36.835Z,21.26
2023-05-15T09:37:38.765Z,21.28
2023-05-15T09:38:42.761Z,21.30
2023-05-15T09:39:44.716Z,21.36
2023-05-15T09:40:46.312Z,21.40
2023-05-15T09:41:47.913Z,21.42
2023-05-15T09:42:52.822Z,21.44
2023-05-15T09:43:56.845Z,21.44
2023-05-15T09:44:59.489Z,21.45
2023-05-15T09:46:01.393Z,21.44
2023-05-15T09:47:05.638Z,21.48
2023-05-15T09:48:08.038Z,21.50
2023-05-15T09:49:10.132Z,21.52
2023-05-15T09:50:11.764Z,21.57
2023-05-15T09:51:18.658Z,21.63
2023-05-15T09:52:20.436Z,21.67
2023-05-15T09:53:22.594Z,21.72
2023-05-15T09:54:25.565Z,21.76
2023-05-15T09:55:28.535Z,21.78
2023-05-15T09:56:30.151Z,21.79
2023-05-15T09:57:32.146Z,21.73
2023-05-15T09:58:35.106Z,21.70
2023-05-15T09:59:36.812Z,21.64
2023-05-15T10:00:48.213Z,21.60
2023-05-15T10:01:52.589Z,21.57
2023-05-15T10:02:58.852Z,21.49
2023-05-15T10:04:02.564Z,21.50
2023-05-15T10:05:04.702Z,21.51
2023-05-15T10:06:06.593Z,21.52
2023-05-15T10:07:10.007Z,21.57
2023-05-15T10:08:12.722Z,21.61
2023-05-15T10:09:15.132Z,21.65
2023-05-15T10:10:16.979Z,21.60
2023-05-15T10:11:20.106Z,21.58
2023-05-15T10:12:23.705Z,21.53
2023-05-15T10:13:26.554Z,21.49
2023-05-15T10:14:29.346Z,21.51
2023-05-15T10:15:31.586Z,21.50
2023-05-15T10:16:38.030Z,21.51
2023-05-15T10:17:41.833Z,21.46
2023-05-15T10:18:46.054Z,21.42
2023-05-15T10:19:58.217Z,21.41
2023-05-15T10:21:04.128Z,21.33
2023-05-15T10:22:06.266Z,21.33
2023-05-15T10:23:10.833Z,21.35
2023-05-15T10:24:13.622Z,21.36
2023-05-15T10:25:44.062Z,21.41
2023-05-15T10:26:47.586Z,21.48
2023-05-15T10:27:51.226Z,21.51
2023-05-15T10:28:53.664Z,21.52
2023-05-15T10:29:57.374Z,21.53
2023-05-15T10:31:01.753Z,21.54
2023-05-15T10:32:04.742Z,21.59
2023-05-15T10:33:07.960Z,21.55
2023-05-15T10:34:10.919Z,21.48
2023-05-15T10:35:13.018Z,21.48
2023-05-15T10:36:16.380Z,21.53
2023-05-15T10:37:19.143Z,21.60
2023-05-15T10:38:21.676Z,21.58
2023-05-15T10:39:23.653Z,21.62
2023-05-15T10:40:25.680Z,21.63
2023-05-15T10:41:29.762Z,21.60
2023-05-15T10:42:32.061Z,21.59
2023-05-15T10:43:35.341Z,21.62
2023-05-15T10:44:36.900Z,21.65
2023-05-15T10:45:39.696Z,21.66
2023-05-15T10:46:41.431Z,21.65
2023-05-15T10:47:45.451Z,21.65
2023-05-15T10:48:47.105Z,21.65
2023-05-15T10:49:51.505Z,21.69
2023-05-15T10:50:53.618Z,21.71
2023-05-15T10:51:55.986Z,21.75
2023-05-15T10:52:57.614Z,21.79
2023-05-15T10:54:03.769Z,21.82
2023-05-15T10:55:10.078Z,21.88
2023-05-15T10:56:14.547Z,21.97
2023-05-15T10:57:16.348Z,22.07
2023-05-15T10:58:25.174Z,22.09
2023-05-15T10:59:34.022Z,22.12
2023-05-15T11:00:42.528Z,22.19
2023-05-15T11:01:44.412Z,22.23
2023-05-15T11:02:46.027Z,22.27
2023-05-15T11:03:50.537Z,22.31
2023-05-15T11:05:01.045Z,22.39
2023-05-15T11:06:12.638Z,22.46
2023-05-15T11:07:18.331Z,22.56
2023-05-15T11:08:22.708Z,22.64
2023-05-15T11:09:28.106Z,22.75
2023-05-15T11:10:29.886Z,22.84
2023-05-15T11:11:51.386Z,22.92
2023-05-15T11:12:58.226Z,22.99
2023-05-15T11:14:06.303Z,23.04
2023-05-15T11:15:11.037Z,23.08
2023-05-15T11:16:14.102Z,23.16
2023-05-15T11:17:16.597Z,23.26
2023-05-15T11:18:20.277Z,23.37
2023-05-15T11:19:28.927Z,23.46
2023-05-15T11:20:39.865Z,23.51
2023-05-15T11:21:47.238Z,23.48
2023-05-15T11:22:58.024Z,23.45
2023-05-15T11:24:06.707Z,23.44
2023-05-15T11:25:09.602Z,23.46
2023-05-15T11:26:13.678Z,23.48
2023-05-15T11:27:41.706Z,23.51
2023-05-15T11:28:44.034Z,23.51
2023-05-15T11:30:13.855Z,23.49
2023-05-15T11:31:16.124Z,23.46
2023-05-15T11:32:45.616Z,23.40
2023-05-15T11:33:52.280Z,23.31
2023-05-15T11:35:00.274Z,23.22
2023-05-15T11:36:05.396Z,23.00
2023-05-15T11:37:17.205Z,22.85
2023-05-15T11:38:24.896Z,22.78
2023-05-15T11:39:27.882Z,22.59
2023-05-15T11:40:31.644Z,22.44
2023-05-15T11:41:33.507Z,22.29
2023-05-15T11:42:35.428Z,22.23
2023-05-15T11:43:37.020Z,22.21
2023-05-15T11:44:39.720Z,22.21
2023-05-15T11:45:41.424Z,22.21
2023-05-15T11:46:44.109Z,22.21
2023-05-15T11:47:45.936Z,22.17
2023-05-15T11:48:48.241Z,22.10
2023-05-15T11:49:50.144Z,22.08
2023-05-15T11:50:55.105Z,22.05
2023-05-15T11:51:56.848Z,21.99
2023-05-15T11:53:01.396Z,21.96
2023-05-15T11:54:05.260Z,21.96
2023-05-15T11:55:08.597Z,21.97
2023-05-15T11:56:18.564Z,21.93
2023-05-15T11:57:22.344Z,21.91
2023-05-15T11:58:25.925Z,21.87
2023-05-15T11:59:27.682Z,21.80
2023-05-15T12:00:29.530Z,21.76
2023-05-15T12:01:47.521Z,21.70
2023-05-15T12:02:49.731Z,21.61
2023-05-15T12:03:56.356Z,21.57
2023-05-15T12:04:58.326Z,21.51
2023-05-15T12:06:01.956Z,21.49
2023-05-15T12:07:06.195Z,21.46
2023-05-15T12:08:12.869Z,21.46
2023-05-15T12:09:16.733Z,21.44
2023-05-15T12:10:18.829Z,21.40
2023-05-15T12:11:24.902Z,21.37
2023-05-15T12:12:28.716Z,21.37
2023-05-15T12:13:31.992Z,21.40
2023-05-15T12:14:33.932Z,21.42
2023-05-15T12:15:38.895Z,21.41
2023-05-15T12:16:40.578Z,21.38
2023-05-15T12:17:44.526Z,21.40
2023-05-15T12:18:47.439Z,21.40
2023-05-15T12:19:50.118Z,21.39
2023-05-15T12:20:53.023Z,21.39
2023-05-15T12:21:54.965Z,21.32
2023-05-15T12:22:58.736Z,21.27
2023-05-15T12:24:07.552Z,21.19
2023-05-15T12:25:11.501Z,21.17
2023-05-15T12:26:13.520Z,21.17
2023-05-15T12:27:16.072Z,21.21
2023-05-15T12:28:17.987Z,21.24
2023-05-15T12:29:20.488Z,21.24
2023-05-15T12:30:22.706Z,21.20
2023-05-15T12:31:24.596Z,21.21
2023-05-15T12:32:27.577Z,21.18
2023-05-15T12:33:29.738Z,21.17
2023-05-15T12:34:31.932Z,21.17
2023-05-15T12:35:35.371Z,21.16
2023-05-15T12:36:37.072Z,21.19
2023-05-15T12:37:38.859Z,21.19
2023-05-15T12:38:40.625Z,21.20
2023-05-15T12:39:51.813Z,21.20
2023-05-15T12:40:54.225Z,21.16
2023-05-15T12:41:58.262Z,21.15
2023-05-15T12:43:05.276Z,21.08
2023-05-15T12:44:06.951Z,21.06
2023-05-15T12:45:16.062Z,21.04
2023-05-15T12:46:21.808Z,21.02
2023-05-15T12:47:24.848Z,21.02
2023-05-15T12:48:32.248Z,21.08
2023-05-15T12:49:36.883Z,21.07
2023-05-15T12:50:38.990Z,21.06
2023-05-15T12:51:44.193Z,21.06
2023-05-15T12:52:52.474Z,21.06
2023-05-15T12:53:54.491Z,21.08
2023-05-15T12:55:00.331Z,21.12
2023-05-15T12:56:02.550Z,21.14
2023-05-15T12:57:04.440Z,21.17
2023-05-15T12:58:08.749Z,21.11
2023-05-15T12:59:11.408Z,21.01
2023-05-15T13:00:14.542Z,21.03
2023-05-15T13:01:17.424Z,21.04
2023-05-15T13:02:21.234Z,21.06
2023-05-15T13:03:25.448Z,21.09
2023-05-15T13:04:27.809Z,21.10
2023-05-15T13:05:33.560Z,21.13
2023-05-15T13:06:45.691Z,21.15
2023-05-15T13:07:48.688Z,21.10
2023-05-15T13:08:50.741Z,21.08
2023-05-15T13:10:05.920Z,21.05
2023-05-15T13:11:13.022Z,21.09
2023-05-15T13:12:19.193Z,21.14
2023-05-15T13:13:21.260Z,21.17
2023-05-15T13:14:26.985Z,21.22
2023-05-15T13:15:39.293Z,21.25
2023-05-15T13:16:43.852Z,21.26
2023-05-15T13:17:45.804Z,21.24
2023-05-15T13:18:47.698Z,21.26
2023-05-15T13:19:49.855Z,21.28
2023-05-15T13:20:51.817Z,21.27
2023-05-15T13:21:53.933Z,21.28
2023-05-15T13:22:55.865Z,21.32
2023-05-15T13:23:57.582Z,21.39
2023-05-15T13:24:59.537Z,21.42
2023-05-15T13:26:01.156Z,21.45
2023-05-15T13:27:03.832Z,21.47
2023-05-15T13:28:06.494Z,21.48
2023-05-15T13:29:08.058Z,21.44
2023-05-15T13:30:12.427Z,21.39
2023-05-15T13:31:14.536Z,21.37
2023-05-15T13:32:16.106Z,21.34
2023-05-15T13:33:17.827Z,21.32
2023-05-15T13:34:19.755Z,21.32
2023-05-15T13:35:21.385Z,21.30
2023-05-15T13:36:23.499Z,21.29
2023-05-15T13:37:25.226Z,21.28
2023-05-15T13:38:26.790Z,21.28
2023-05-15T13:39:28.596Z,21.30
2023-05-15T13:40:32.580Z,21.36
2023-05-15T13:41:36.771Z,21.42
2023-05-15T13:42:40.988Z,21.52
2023-05-15T13:43:42.627Z,21.60
2023-05-15T13:44:44.514Z,21.66
2023-05-15T13:45:46.227Z,21.72
2023-05-15T13:46:47.864Z,21.77
2023-05-15T13:47:50.712Z,21.88